sensor_id;sensor_type;location;lat;lon;timestamp;P1;durP1;ratioP1;P2;durP2;ratioP2
73816;SDS011;62146;53.232;-1.304;2023-04-24T00:00:59;8.55;;;1.95;;
73816;SDS011;62146;53.232;-1.304;2023-04-24T00:03:27;6.35;;;1.80;;
73816;SDS011;62146;53.232;-1.304;2023-04-24T00:05:54;7.00;;;1.90;;
73816;SDS011;62146;53.232;-1.304;2023-04-24T00:08:21;6.82;;;1.63;;
73816;SDS011;62146;53.232;-1.304;2023-04-24T00:10:49;6.60;;;1.70;;
73816;SDS011;62146;53.232;-1.304;2023-04-24T00:13:16;9.25;;;1.85;;
73816;SDS011;62146;53.232;-1.304;2023-04-24T00:15:43;7.68;;;1.58;;
73816;SDS011;62146;53.232;-1.304;2023-04-24T00:18:09;5.97;;;1.55;;
73816;SDS011;62146;53.232;-1.304;2023-04-24T00:20:36;6.53;;;1.85;;
73816;SDS011;62146;53.232;-1.304;2023-04-24T00:23:03;6.53;;;1.73;;
73816;SDS011;62146;53.232;-1.304;2023-04-24T00:25:30;6.28;;;1.75;;
73816;SDS011;62146;53.232;-1.304;2023-04-24T00:27:57;7.20;;;1.67;;
73816;SDS011;62146;53.232;-1.304;2023-04-24T00:30:24;6.03;;;1.63;;
73816;SDS011;62146;53.232;-1.304;2023-04-24T00:32:50;6.53;;;1.40;;
73816;SDS011;62146;53.232;-1.304;2023-04-24T00:35:17;4.83;;;1.33;;
73816;SDS011;62146;53.232;-1.304;2023-04-24T00:37:48;5.13;;;1.42;;
73816;SDS011;62146;53.232;-1.304;2023-04-24T00:40:15;4.65;;;1.50;;
73816;SDS011;62146;53.232;-1.304;2023-04-24T00:42:43;5.80;;;1.50;;
73816;SDS011;62146;53.232;-1.304;2023-04-24T00:45:09;5.88;;;1.40;;
73816;SDS011;62146;53.232;-1.304;2023-04-24T00:47:36;6.50;;;1.50;;
73816;SDS011;62146;53.232;-1.304;2023-04-24T00:50:03;5.13;;;1.50;;
73816;SDS011;62146;53.232;-1.304;2023-04-24T00:52:32;6.38;;;1.67;;
73816;SDS011;62146;53.232;-1.304;2023-04-24T00:54:59;4.22;;;1.38;;
73816;SDS011;62146;53.232;-1.304;2023-04-24T00:57:26;4.60;;;1.40;;
73816;SDS011;62146;53.232;-1.304;2023-04-24T00:59:52;4.73;;;1.30;;
73816;SDS011;62146;53.232;-1.304;2023-04-24T01:02:19;7.82;;;1.50;;
73816;SDS011;62146;53.232;-1.304;2023-04-24T01:04:49;6.35;;;1.45;;
73816;SDS011;62146;53.232;-1.304;2023-04-24T01:07:20;8.75;;;1.67;;
73816;SDS011;62146;53.232;-1.304;2023-04-24T01:09:47;4.22;;;1.20;;
73816;SDS011;62146;53.232;-1.304;2023-04-24T01:12:17;4.37;;;1.40;;
73816;SDS011;62146;53.232;-1.304;2023-04-24T01:14:44;3.90;;;1.45;;
73816;SDS011;62146;53.232;-1.304;2023-04-24T01:17:11;6.60;;;1.20;;
73816;SDS011;62146;53.232;-1.304;2023-04-24T01:19:38;4.72;;;1.10;;
73816;SDS011;62146;53.232;-1.304;2023-04-24T01:22:09;5.05;;;1.20;;
73816;SDS011;62146;53.232;-1.304;2023-04-24T01:24:38;5.27;;;1.20;;
73816;SDS011;62146;53.232;-1.304;2023-04-24T01:27:04;3.83;;;1.17;;
73816;SDS011;62146;53.232;-1.304;2023-04-24T01:29:31;5.47;;;1.00;;
73816;SDS011;62146;53.232;-1.304;2023-04-24T01:31:58;6.60;;;1.05;;
73816;SDS011;62146;53.232;-1.304;2023-04-24T01:34:25;3.55;;;1.20;;
73816;SDS011;62146;53.232;-1.304;2023-04-24T01:36:52;5.37;;;1.27;;
73816;SDS011;62146;53.232;-1.304;2023-04-24T01:39:18;4.80;;;1.02;;
73816;SDS011;62146;53.232;-1.304;2023-04-24T01:41:46;4.80;;;1.40;;
73816;SDS011;62146;53.232;-1.304;2023-04-24T01:44:13;3.72;;;1.20;;
73816;SDS011;62146;53.232;-1.304;2023-04-24T01:46:40;3.05;;;1.17;;
73816;SDS011;62146;53.232;-1.304;2023-04-24T01:49:07;3.43;;;1.20;;
73816;SDS011;62146;53.232;-1.304;2023-04-24T01:51:34;4.28;;;1.10;;
73816;SDS011;62146;53.232;-1.304;2023-04-24T01:54:00;5.63;;;1.38;;
73816;SDS011;62146;53.232;-1.304;2023-04-24T01:56:28;4.13;;;1.17;;
73816;SDS011;62146;53.232;-1.304;2023-04-24T01:58:56;5.13;;;1.40;;
73816;SDS011;62146;53.232;-1.304;2023-04-24T02:01:24;4.90;;;1.13;;
73816;SDS011;62146;53.232;-1.304;2023-04-24T02:03:51;3.25;;;1.10;;
73816;SDS011;62146;53.232;-1.304;2023-04-24T02:06:18;4.65;;;1.40;;
73816;SDS011;62146;53.232;-1.304;2023-04-24T02:08:44;4.85;;;1.55;;
73816;SDS011;62146;53.232;-1.304;2023-04-24T02:11:11;4.05;;;1.20;;
73816;SDS011;62146;53.232;-1.304;2023-04-24T02:13:37;3.47;;;1.00;;
73816;SDS011;62146;53.232;-1.304;2023-04-24T02:16:04;2.60;;;0.93;;
73816;SDS011;62146;53.232;-1.304;2023-04-24T02:18:30;4.68;;;1.20;;
73816;SDS011;62146;53.232;-1.304;2023-04-24T02:20:57;5.28;;;1.63;;
73816;SDS011;62146;53.232;-1.304;2023-04-24T02:23:24;5.78;;;1.10;;
73816;SDS011;62146;53.232;-1.304;2023-04-24T02:25:51;4.20;;;1.20;;
73816;SDS011;62146;53.232;-1.304;2023-04-24T02:28:19;6.55;;;1.30;;
73816;SDS011;62146;53.232;-1.304;2023-04-24T02:30:46;4.18;;;1.10;;
73816;SDS011;62146;53.232;-1.304;2023-04-24T02:33:12;3.75;;;1.00;;
73816;SDS011;62146;53.232;-1.304;2023-04-24T02:35:39;4.18;;;1.20;;
73816;SDS011;62146;53.232;-1.304;2023-04-24T02:38:06;4.43;;;1.20;;
73816;SDS011;62146;53.232;-1.304;2023-04-24T02:40:32;3.15;;;1.00;;
73816;SDS011;62146;53.232;-1.304;2023-04-24T02:42:59;4.45;;;1.30;;
73816;SDS011;62146;53.232;-1.304;2023-04-24T02:45:25;5.95;;;1.10;;
73816;SDS011;62146;53.232;-1.304;2023-04-24T02:47:52;6.60;;;1.40;;
73816;SDS011;62146;53.232;-1.304;2023-04-24T02:50:18;3.50;;;1.03;;
73816;SDS011;62146;53.232;-1.304;2023-04-24T02:52:45;3.75;;;1.10;;
73816;SDS011;62146;53.232;-1.304;2023-04-24T02:55:11;4.60;;;1.10;;
73816;SDS011;62146;53.232;-1.304;2023-04-24T02:57:38;4.22;;;1.00;;
73816;SDS011;62146;53.232;-1.304;2023-04-24T03:00:05;3.30;;;1.17;;
73816;SDS011;62146;53.232;-1.304;2023-04-24T03:02:33;3.73;;;1.00;;
73816;SDS011;62146;53.232;-1.304;2023-04-24T03:05:00;4.57;;;0.95;;
73816;SDS011;62146;53.232;-1.304;2023-04-24T03:07:28;3.22;;;1.00;;
73816;SDS011;62146;53.232;-1.304;2023-04-24T03:09:55;4.53;;;1.10;;
73816;SDS011;62146;53.232;-1.304;2023-04-24T03:12:21;4.07;;;1.02;;
73816;SDS011;62146;53.232;-1.304;2023-04-24T03:14:49;3.17;;;1.00;;
73816;SDS011;62146;53.232;-1.304;2023-04-24T03:17:16;4.45;;;1.33;;
73816;SDS011;62146;53.232;-1.304;2023-04-24T03:19:43;3.65;;;1.10;;
73816;SDS011;62146;53.232;-1.304;2023-04-24T03:22:10;2.90;;;0.90;;
73816;SDS011;62146;53.232;-1.304;2023-04-24T03:24:37;4.85;;;1.13;;
73816;SDS011;62146;53.232;-1.304;2023-04-24T03:27:04;4.83;;;1.20;;
73816;SDS011;62146;53.232;-1.304;2023-04-24T03:29:30;3.63;;;1.15;;
73816;SDS011;62146;53.232;-1.304;2023-04-24T03:31:57;5.50;;;1.20;;
73816;SDS011;62146;53.232;-1.304;2023-04-24T03:34:24;4.30;;;1.30;;
73816;SDS011;62146;53.232;-1.304;2023-04-24T03:36:50;3.40;;;1.17;;
73816;SDS011;62146;53.232;-1.304;2023-04-24T03:39:17;2.93;;;0.93;;
73816;SDS011;62146;53.232;-1.304;2023-04-24T03:41:43;3.63;;;1.10;;
73816;SDS011;62146;53.232;-1.304;2023-04-24T03:44:10;5.70;;;1.20;;
73816;SDS011;62146;53.232;-1.304;2023-04-24T03:46:36;3.05;;;1.10;;
73816;SDS011;62146;53.232;-1.304;2023-04-24T03:49:03;3.88;;;1.05;;
73816;SDS011;62146;53.232;-1.304;2023-04-24T03:51:30;3.77;;;1.00;;
73816;SDS011;62146;53.232;-1.304;2023-04-24T03:53:57;3.15;;;0.82;;
73816;SDS011;62146;53.232;-1.304;2023-04-24T03:56:24;6.25;;;1.00;;
73816;SDS011;62146;53.232;-1.304;2023-04-24T03:58:50;7.50;;;1.20;;
73816;SDS011;62146;53.232;-1.304;2023-04-24T04:01:17;4.03;;;1.05;;
73816;SDS011;62146;53.232;-1.304;2023-04-24T04:03:44;4.70;;;0.97;;
73816;SDS011;62146;53.232;-1.304;2023-04-24T04:06:11;4.75;;;1.20;;
73816;SDS011;62146;53.232;-1.304;2023-04-24T04:08:39;4.10;;;0.95;;
73816;SDS011;62146;53.232;-1.304;2023-04-24T04:11:05;4.05;;;1.20;;
73816;SDS011;62146;53.232;-1.304;2023-04-24T04:13:32;3.78;;;0.88;;
73816;SDS011;62146;53.232;-1.304;2023-04-24T04:15:58;3.97;;;1.40;;
73816;SDS011;62146;53.232;-1.304;2023-04-24T04:18:25;3.90;;;1.20;;
73816;SDS011;62146;53.232;-1.304;2023-04-24T04:20:52;5.43;;;1.30;;
73816;SDS011;62146;53.232;-1.304;2023-04-24T04:23:18;3.53;;;1.10;;
73816;SDS011;62146;53.232;-1.304;2023-04-24T04:25:45;4.03;;;1.30;;
73816;SDS011;62146;53.232;-1.304;2023-04-24T04:28:13;5.27;;;1.30;;
73816;SDS011;62146;53.232;-1.304;2023-04-24T04:30:39;4.35;;;1.20;;
73816;SDS011;62146;53.232;-1.304;2023-04-24T04:33:06;4.70;;;1.10;;
73816;SDS011;62146;53.232;-1.304;2023-04-24T04:35:34;4.50;;;1.00;;
73816;SDS011;62146;53.232;-1.304;2023-04-24T04:38:01;5.55;;;1.30;;
73816;SDS011;62146;53.232;-1.304;2023-04-24T04:40:27;3.00;;;1.07;;
73816;SDS011;62146;53.232;-1.304;2023-04-24T04:42:54;3.38;;;0.93;;
73816;SDS011;62146;53.232;-1.304;2023-04-24T04:45:21;5.13;;;1.20;;
73816;SDS011;62146;53.232;-1.304;2023-04-24T04:47:47;5.05;;;1.23;;
73816;SDS011;62146;53.232;-1.304;2023-04-24T04:50:14;6.35;;;1.30;;
73816;SDS011;62146;53.232;-1.304;2023-04-24T04:52:42;4.07;;;1.47;;
73816;SDS011;62146;53.232;-1.304;2023-04-24T04:55:09;5.05;;;1.10;;
73816;SDS011;62146;53.232;-1.304;2023-04-24T04:57:35;3.17;;;0.90;;
73816;SDS011;62146;53.232;-1.304;2023-04-24T05:00:02;3.20;;;0.88;;
73816;SDS011;62146;53.232;-1.304;2023-04-24T05:02:30;4.03;;;1.17;;
73816;SDS011;62146;53.232;-1.304;2023-04-24T05:04:57;4.60;;;1.27;;
73816;SDS011;62146;53.232;-1.304;2023-04-24T05:07:24;5.88;;;1.42;;
73816;SDS011;62146;53.232;-1.304;2023-04-24T05:09:51;3.83;;;1.05;;
73816;SDS011;62146;53.232;-1.304;2023-04-24T05:12:18;5.65;;;1.13;;
73816;SDS011;62146;53.232;-1.304;2023-04-24T05:14:45;5.55;;;1.42;;
73816;SDS011;62146;53.232;-1.304;2023-04-24T05:17:11;3.20;;;1.00;;
73816;SDS011;62146;53.232;-1.304;2023-04-24T05:19:38;8.68;;;1.23;;
73816;SDS011;62146;53.232;-1.304;2023-04-24T05:22:04;6.22;;;1.15;;
73816;SDS011;62146;53.232;-1.304;2023-04-24T05:24:33;5.72;;;1.00;;
73816;SDS011;62146;53.232;-1.304;2023-04-24T05:27:00;5.70;;;1.25;;
73816;SDS011;62146;53.232;-1.304;2023-04-24T05:29:28;3.83;;;1.13;;
73816;SDS011;62146;53.232;-1.304;2023-04-24T05:31:57;3.63;;;0.95;;
73816;SDS011;62146;53.232;-1.304;2023-04-24T05:34:24;4.22;;;1.20;;
73816;SDS011;62146;53.232;-1.304;2023-04-24T05:36:50;2.92;;;0.80;;
73816;SDS011;62146;53.232;-1.304;2023-04-24T05:39:17;4.65;;;1.15;;
73816;SDS011;62146;53.232;-1.304;2023-04-24T05:41:44;4.33;;;1.10;;
73816;SDS011;62146;53.232;-1.304;2023-04-24T05:44:11;4.82;;;1.08;;
73816;SDS011;62146;53.232;-1.304;2023-04-24T05:46:37;6.78;;;1.30;;
73816;SDS011;62146;53.232;-1.304;2023-04-24T05:49:04;5.10;;;1.20;;
73816;SDS011;62146;53.232;-1.304;2023-04-24T05:51:30;3.83;;;1.20;;
73816;SDS011;62146;53.232;-1.304;2023-04-24T05:53:57;4.97;;;1.40;;
73816;SDS011;62146;53.232;-1.304;2023-04-24T05:56:24;2.90;;;0.85;;
73816;SDS011;62146;53.232;-1.304;2023-04-24T05:58:51;4.38;;;1.00;;
73816;SDS011;62146;53.232;-1.304;2023-04-24T06:01:18;3.00;;;0.93;;
73816;SDS011;62146;53.232;-1.304;2023-04-24T06:03:45;3.72;;;0.90;;
73816;SDS011;62146;53.232;-1.304;2023-04-24T06:06:12;5.17;;;1.03;;
73816;SDS011;62146;53.232;-1.304;2023-04-24T06:08:39;4.07;;;1.20;;
73816;SDS011;62146;53.232;-1.304;2023-04-24T06:11:06;3.20;;;0.93;;
73816;SDS011;62146;53.232;-1.304;2023-04-24T06:13:32;5.45;;;1.10;;
73816;SDS011;62146;53.232;-1.304;2023-04-24T06:15:59;3.38;;;1.13;;
73816;SDS011;62146;53.232;-1.304;2023-04-24T06:18:25;2.90;;;0.90;;
73816;SDS011;62146;53.232;-1.304;2023-04-24T06:20:52;5.88;;;1.20;;
73816;SDS011;62146;53.232;-1.304;2023-04-24T06:23:18;5.55;;;1.60;;
73816;SDS011;62146;53.232;-1.304;2023-04-24T06:25:45;5.00;;;1.17;;
73816;SDS011;62146;53.232;-1.304;2023-04-24T06:28:12;3.95;;;1.20;;
73816;SDS011;62146;53.232;-1.304;2023-04-24T06:30:39;5.33;;;1.40;;
73816;SDS011;62146;53.232;-1.304;2023-04-24T06:33:07;5.53;;;1.20;;
73816;SDS011;62146;53.232;-1.304;2023-04-24T06:35:45;4.57;;;1.17;;
73816;SDS011;62146;53.232;-1.304;2023-04-24T06:38:12;4.13;;;1.40;;
73816;SDS011;62146;53.232;-1.304;2023-04-24T06:40:39;7.10;;;1.70;;
73816;SDS011;62146;53.232;-1.304;2023-04-24T06:43:06;5.90;;;1.47;;
73816;SDS011;62146;53.232;-1.304;2023-04-24T06:45:32;4.85;;;1.30;;
73816;SDS011;62146;53.232;-1.304;2023-04-24T06:47:59;5.90;;;1.30;;
73816;SDS011;62146;53.232;-1.304;2023-04-24T06:50:26;5.72;;;1.52;;
73816;SDS011;62146;53.232;-1.304;2023-04-24T06:52:52;4.03;;;1.45;;
73816;SDS011;62146;53.232;-1.304;2023-04-24T06:55:19;3.13;;;1.20;;
73816;SDS011;62146;53.232;-1.304;2023-04-24T06:57:45;5.25;;;1.45;;
73816;SDS011;62146;53.232;-1.304;2023-04-24T07:00:12;6.70;;;1.67;;
73816;SDS011;62146;53.232;-1.304;2023-04-24T07:02:39;5.57;;;1.17;;
73816;SDS011;62146;53.232;-1.304;2023-04-24T07:05:06;7.10;;;1.45;;
73816;SDS011;62146;53.232;-1.304;2023-04-24T07:07:34;6.57;;;1.40;;
73816;SDS011;62146;53.232;-1.304;2023-04-24T07:10:04;7.30;;;1.52;;
73816;SDS011;62146;53.232;-1.304;2023-04-24T07:12:31;5.25;;;1.42;;
73816;SDS011;62146;53.232;-1.304;2023-04-24T07:14:59;5.72;;;1.50;;
73816;SDS011;62146;53.232;-1.304;2023-04-24T07:17:26;5.90;;;1.60;;
73816;SDS011;62146;53.232;-1.304;2023-04-24T07:19:53;8.33;;;1.47;;
73816;SDS011;62146;53.232;-1.304;2023-04-24T07:22:20;6.35;;;1.60;;
73816;SDS011;62146;53.232;-1.304;2023-04-24T07:24:47;4.47;;;1.33;;
73816;SDS011;62146;53.232;-1.304;2023-04-24T07:27:13;6.22;;;1.40;;
73816;SDS011;62146;53.232;-1.304;2023-04-24T07:29:41;6.95;;;1.88;;
73816;SDS011;62146;53.232;-1.304;2023-04-24T07:32:08;4.97;;;1.40;;
73816;SDS011;62146;53.232;-1.304;2023-04-24T07:34:35;6.80;;;1.35;;
73816;SDS011;62146;53.232;-1.304;2023-04-24T07:37:02;6.25;;;2.00;;
73816;SDS011;62146;53.232;-1.304;2023-04-24T07:39:29;4.10;;;1.60;;
73816;SDS011;62146;53.232;-1.304;2023-04-24T07:41:55;5.82;;;1.90;;
73816;SDS011;62146;53.232;-1.304;2023-04-24T07:44:22;5.60;;;1.50;;
73816;SDS011;62146;53.232;-1.304;2023-04-24T07:46:49;4.95;;;1.70;;
73816;SDS011;62146;53.232;-1.304;2023-04-24T07:49:15;7.88;;;1.80;;
73816;SDS011;62146;53.232;-1.304;2023-04-24T07:51:45;11.50;;;2.20;;
73816;SDS011;62146;53.232;-1.304;2023-04-24T07:54:12;6.13;;;2.05;;
73816;SDS011;62146;53.232;-1.304;2023-04-24T07:56:39;6.87;;;1.63;;
73816;SDS011;62146;53.232;-1.304;2023-04-24T07:59:08;7.43;;;1.98;;
73816;SDS011;62146;53.232;-1.304;2023-04-24T08:01:36;9.68;;;1.98;;
73816;SDS011;62146;53.232;-1.304;2023-04-24T08:04:02;6.85;;;2.05;;
73816;SDS011;62146;53.232;-1.304;2023-04-24T08:06:29;7.88;;;2.10;;
73816;SDS011;62146;53.232;-1.304;2023-04-24T08:08:57;9.17;;;2.20;;
73816;SDS011;62146;53.232;-1.304;2023-04-24T08:11:24;6.80;;;2.00;;
73816;SDS011;62146;53.232;-1.304;2023-04-24T08:13:51;7.88;;;1.90;;
73816;SDS011;62146;53.232;-1.304;2023-04-24T08:16:18;7.18;;;2.08;;
73816;SDS011;62146;53.232;-1.304;2023-04-24T08:18:44;7.32;;;2.03;;
73816;SDS011;62146;53.232;-1.304;2023-04-24T08:21:11;7.60;;;2.00;;
73816;SDS011;62146;53.232;-1.304;2023-04-24T08:23:43;7.03;;;2.47;;
73816;SDS011;62146;53.232;-1.304;2023-04-24T08:26:10;9.48;;;2.00;;
73816;SDS011;62146;53.232;-1.304;2023-04-24T08:28:37;6.65;;;2.08;;
73816;SDS011;62146;53.232;-1.304;2023-04-24T08:31:04;8.05;;;2.13;;
73816;SDS011;62146;53.232;-1.304;2023-04-24T08:33:31;7.67;;;1.87;;
73816;SDS011;62146;53.232;-1.304;2023-04-24T08:36:04;8.55;;;2.38;;
73816;SDS011;62146;53.232;-1.304;2023-04-24T08:38:31;8.45;;;2.35;;
73816;SDS011;62146;53.232;-1.304;2023-04-24T08:40:58;9.48;;;2.40;;
73816;SDS011;62146;53.232;-1.304;2023-04-24T08:43:26;8.73;;;2.20;;
73816;SDS011;62146;53.232;-1.304;2023-04-24T08:45:55;7.80;;;2.30;;
73816;SDS011;62146;53.232;-1.304;2023-04-24T08:48:23;8.90;;;2.13;;
73816;SDS011;62146;53.232;-1.304;2023-04-24T08:50:57;8.02;;;2.47;;
73816;SDS011;62146;53.232;-1.304;2023-04-24T08:53:25;10.20;;;2.15;;
73816;SDS011;62146;53.232;-1.304;2023-04-24T08:55:53;6.13;;;2.03;;
73816;SDS011;62146;53.232;-1.304;2023-04-24T08:58:22;7.97;;;2.20;;
73816;SDS011;62146;53.232;-1.304;2023-04-24T09:00:51;8.88;;;2.20;;
73816;SDS011;62146;53.232;-1.304;2023-04-24T09:03:20;6.88;;;1.92;;
73816;SDS011;62146;53.232;-1.304;2023-04-24T09:05:48;8.30;;;2.15;;
73816;SDS011;62146;53.232;-1.304;2023-04-24T09:08:17;7.95;;;2.20;;
73816;SDS011;62146;53.232;-1.304;2023-04-24T09:10:45;6.83;;;2.20;;
73816;SDS011;62146;53.232;-1.304;2023-04-24T09:13:16;5.32;;;2.10;;
73816;SDS011;62146;53.232;-1.304;2023-04-24T09:15:44;5.75;;;2.22;;
73816;SDS011;62146;53.232;-1.304;2023-04-24T09:18:11;12.10;;;2.50;;
73816;SDS011;62146;53.232;-1.304;2023-04-24T09:23:25;8.03;;;2.70;;
73816;SDS011;62146;53.232;-1.304;2023-04-24T09:25:56;6.95;;;2.55;;
73816;SDS011;62146;53.232;-1.304;2023-04-24T09:28:25;11.90;;;2.80;;
73816;SDS011;62146;53.232;-1.304;2023-04-24T09:31:12;9.60;;;2.63;;
73816;SDS011;62146;53.232;-1.304;2023-04-24T09:33:55;9.10;;;2.20;;
73816;SDS011;62146;53.232;-1.304;2023-04-24T09:39:08;8.30;;;2.55;;
73816;SDS011;62146;53.232;-1.304;2023-04-24T09:44:18;7.78;;;2.35;;
73816;SDS011;62146;53.232;-1.304;2023-04-24T09:46:50;6.30;;;2.40;;
73816;SDS011;62146;53.232;-1.304;2023-04-24T09:49:22;8.90;;;2.33;;
73816;SDS011;62146;53.232;-1.304;2023-04-24T09:51:51;6.70;;;2.40;;
73816;SDS011;62146;53.232;-1.304;2023-04-24T09:54:18;6.05;;;2.35;;
73816;SDS011;62146;53.232;-1.304;2023-04-24T09:56:48;7.07;;;2.30;;
73816;SDS011;62146;53.232;-1.304;2023-04-24T09:59:16;11.70;;;2.47;;
73816;SDS011;62146;53.232;-1.304;2023-04-24T10:01:44;6.20;;;2.20;;
73816;SDS011;62146;53.232;-1.304;2023-04-24T10:04:15;6.47;;;2.17;;
73816;SDS011;62146;53.232;-1.304;2023-04-24T10:06:43;6.60;;;2.30;;
73816;SDS011;62146;53.232;-1.304;2023-04-24T10:09:11;6.20;;;2.33;;
73816;SDS011;62146;53.232;-1.304;2023-04-24T10:11:42;8.95;;;2.50;;
73816;SDS011;62146;53.232;-1.304;2023-04-24T10:14:13;7.97;;;2.40;;
73816;SDS011;62146;53.232;-1.304;2023-04-24T10:16:42;8.60;;;2.25;;
73816;SDS011;62146;53.232;-1.304;2023-04-24T10:19:09;7.40;;;2.10;;
73816;SDS011;62146;53.232;-1.304;2023-04-24T10:21:38;7.35;;;2.75;;
73816;SDS011;62146;53.232;-1.304;2023-04-24T10:24:08;9.93;;;2.35;;
73816;SDS011;62146;53.232;-1.304;2023-04-24T10:26:36;7.17;;;2.33;;
73816;SDS011;62146;53.232;-1.304;2023-04-24T10:29:03;5.93;;;2.13;;
73816;SDS011;62146;53.232;-1.304;2023-04-24T10:31:36;8.05;;;2.35;;
73816;SDS011;62146;53.232;-1.304;2023-04-24T10:34:05;6.32;;;2.30;;
73816;SDS011;62146;53.232;-1.304;2023-04-24T10:36:33;6.63;;;2.70;;
73816;SDS011;62146;53.232;-1.304;2023-04-24T10:39:02;8.47;;;2.20;;
73816;SDS011;62146;53.232;-1.304;2023-04-24T10:41:30;8.50;;;2.67;;
73816;SDS011;62146;53.232;-1.304;2023-04-24T10:44:13;8.00;;;2.38;;
73816;SDS011;62146;53.232;-1.304;2023-04-24T10:46:45;8.00;;;2.33;;
73816;SDS011;62146;53.232;-1.304;2023-04-24T10:49:15;8.10;;;2.20;;
73816;SDS011;62146;53.232;-1.304;2023-04-24T10:51:51;8.33;;;2.20;;
73816;SDS011;62146;53.232;-1.304;2023-04-24T10:54:26;6.03;;;2.20;;
73816;SDS011;62146;53.232;-1.304;2023-04-24T10:59:49;7.43;;;2.20;;
73816;SDS011;62146;53.232;-1.304;2023-04-24T11:02:18;10.77;;;2.40;;
73816;SDS011;62146;53.232;-1.304;2023-04-24T11:05:03;7.40;;;2.47;;
73816;SDS011;62146;53.232;-1.304;2023-04-24T11:08:05;7.53;;;2.90;;
73816;SDS011;62146;53.232;-1.304;2023-04-24T11:10:41;7.00;;;2.58;;
73816;SDS011;62146;53.232;-1.304;2023-04-24T11:13:10;8.95;;;2.58;;
73816;SDS011;62146;53.232;-1.304;2023-04-24T11:15:41;7.20;;;2.47;;
73816;SDS011;62146;53.232;-1.304;2023-04-24T11:18:15;8.57;;;2.67;;
73816;SDS011;62146;53.232;-1.304;2023-04-24T11:20:42;6.70;;;2.30;;
73816;SDS011;62146;53.232;-1.304;2023-04-24T11:23:11;5.05;;;2.20;;
73816;SDS011;62146;53.232;-1.304;2023-04-24T11:25:38;6.90;;;2.42;;
73816;SDS011;62146;53.232;-1.304;2023-04-24T11:28:05;6.63;;;2.25;;
73816;SDS011;62146;53.232;-1.304;2023-04-24T11:30:32;10.07;;;2.57;;
73816;SDS011;62146;53.232;-1.304;2023-04-24T11:33:03;8.60;;;2.30;;
73816;SDS011;62146;53.232;-1.304;2023-04-24T11:35:34;6.57;;;2.47;;
73816;SDS011;62146;53.232;-1.304;2023-04-24T11:38:05;6.85;;;2.50;;
73816;SDS011;62146;53.232;-1.304;2023-04-24T11:40:36;9.68;;;2.70;;
73816;SDS011;62146;53.232;-1.304;2023-04-24T11:43:04;7.50;;;2.70;;
73816;SDS011;62146;53.232;-1.304;2023-04-24T11:45:33;7.25;;;2.78;;
73816;SDS011;62146;53.232;-1.304;2023-04-24T11:48:00;8.93;;;2.65;;
73816;SDS011;62146;53.232;-1.304;2023-04-24T11:50:29;6.32;;;2.13;;
73816;SDS011;62146;53.232;-1.304;2023-04-24T11:52:56;7.50;;;2.30;;
73816;SDS011;62146;53.232;-1.304;2023-04-24T11:57:53;9.93;;;3.00;;
73816;SDS011;62146;53.232;-1.304;2023-04-24T12:00:23;10.20;;;2.40;;
73816;SDS011;62146;53.232;-1.304;2023-04-24T12:02:51;7.13;;;2.40;;
73816;SDS011;62146;53.232;-1.304;2023-04-24T12:07:53;7.20;;;2.23;;
73816;SDS011;62146;53.232;-1.304;2023-04-24T12:10:23;6.85;;;2.60;;
73816;SDS011;62146;53.232;-1.304;2023-04-24T12:12:51;7.03;;;2.15;;
73816;SDS011;62146;53.232;-1.304;2023-04-24T12:15:19;7.03;;;2.60;;
73816;SDS011;62146;53.232;-1.304;2023-04-24T12:17:47;9.98;;;2.60;;
73816;SDS011;62146;53.232;-1.304;2023-04-24T12:20:14;7.70;;;2.50;;
73816;SDS011;62146;53.232;-1.304;2023-04-24T12:22:47;7.45;;;2.60;;
73816;SDS011;62146;53.232;-1.304;2023-04-24T12:25:16;7.97;;;2.80;;
73816;SDS011;62146;53.232;-1.304;2023-04-24T12:27:45;6.35;;;2.40;;
73816;SDS011;62146;53.232;-1.304;2023-04-24T12:30:15;7.70;;;2.30;;
73816;SDS011;62146;53.232;-1.304;2023-04-24T12:32:47;7.13;;;2.40;;
73816;SDS011;62146;53.232;-1.304;2023-04-24T12:35:19;8.25;;;2.38;;
73816;SDS011;62146;53.232;-1.304;2023-04-24T12:37:47;7.15;;;2.22;;
73816;SDS011;62146;53.232;-1.304;2023-04-24T12:40:13;6.60;;;2.60;;
73816;SDS011;62146;53.232;-1.304;2023-04-24T12:42:45;8.98;;;2.20;;
73816;SDS011;62146;53.232;-1.304;2023-04-24T12:45:13;8.10;;;2.37;;
73816;SDS011;62146;53.232;-1.304;2023-04-24T12:47:40;6.05;;;2.33;;
73816;SDS011;62146;53.232;-1.304;2023-04-24T12:50:09;6.78;;;2.10;;
73816;SDS011;62146;53.232;-1.304;2023-04-24T12:52:37;9.07;;;2.20;;
73816;SDS011;62146;53.232;-1.304;2023-04-24T12:55:05;5.75;;;1.80;;
73816;SDS011;62146;53.232;-1.304;2023-04-24T12:57:36;6.00;;;2.20;;
73816;SDS011;62146;53.232;-1.304;2023-04-24T13:00:05;7.63;;;2.08;;
73816;SDS011;62146;53.232;-1.304;2023-04-24T13:02:33;5.22;;;1.90;;
73816;SDS011;62146;53.232;-1.304;2023-04-24T13:05:01;5.50;;;1.95;;
73816;SDS011;62146;53.232;-1.304;2023-04-24T13:07:28;7.65;;;1.95;;
73816;SDS011;62146;53.232;-1.304;2023-04-24T13:09:55;5.87;;;2.33;;
73816;SDS011;62146;53.232;-1.304;2023-04-24T13:12:23;5.15;;;2.00;;
73816;SDS011;62146;53.232;-1.304;2023-04-24T13:14:53;7.28;;;2.13;;
73816;SDS011;62146;53.232;-1.304;2023-04-24T13:17:19;8.20;;;2.05;;
73816;SDS011;62146;53.232;-1.304;2023-04-24T13:19:48;7.07;;;2.10;;
73816;SDS011;62146;53.232;-1.304;2023-04-24T13:22:16;6.13;;;2.57;;
73816;SDS011;62146;53.232;-1.304;2023-04-24T13:24:44;8.38;;;2.03;;
73816;SDS011;62146;53.232;-1.304;2023-04-24T13:27:11;5.35;;;2.15;;
73816;SDS011;62146;53.232;-1.304;2023-04-24T13:29:37;7.07;;;2.08;;
73816;SDS011;62146;53.232;-1.304;2023-04-24T13:32:04;7.95;;;2.17;;
73816;SDS011;62146;53.232;-1.304;2023-04-24T13:34:31;6.20;;;1.63;;
73816;SDS011;62146;53.232;-1.304;2023-04-24T13:36:58;5.28;;;1.95;;
73816;SDS011;62146;53.232;-1.304;2023-04-24T13:39:25;6.05;;;1.88;;
73816;SDS011;62146;53.232;-1.304;2023-04-24T13:41:53;5.05;;;1.92;;
73816;SDS011;62146;53.232;-1.304;2023-04-24T13:44:20;5.88;;;2.10;;
73816;SDS011;62146;53.232;-1.304;2023-04-24T13:46:48;7.73;;;2.00;;
73816;SDS011;62146;53.232;-1.304;2023-04-24T13:49:16;6.57;;;2.05;;
73816;SDS011;62146;53.232;-1.304;2023-04-24T13:51:43;5.20;;;2.10;;
73816;SDS011;62146;53.232;-1.304;2023-04-24T13:54:11;5.43;;;1.73;;
73816;SDS011;62146;53.232;-1.304;2023-04-24T13:56:39;7.80;;;2.08;;
73816;SDS011;62146;53.232;-1.304;2023-04-24T13:59:06;6.23;;;1.80;;
73816;SDS011;62146;53.232;-1.304;2023-04-24T14:01:33;5.35;;;1.60;;
73816;SDS011;62146;53.232;-1.304;2023-04-24T14:04:00;7.85;;;2.10;;
73816;SDS011;62146;53.232;-1.304;2023-04-24T14:06:27;6.20;;;2.10;;
73816;SDS011;62146;53.232;-1.304;2023-04-24T14:08:53;8.82;;;2.05;;
73816;SDS011;62146;53.232;-1.304;2023-04-24T14:11:20;8.70;;;2.00;;
73816;SDS011;62146;53.232;-1.304;2023-04-24T14:13:47;6.50;;;1.83;;
73816;SDS011;62146;53.232;-1.304;2023-04-24T14:16:14;5.90;;;2.00;;
73816;SDS011;62146;53.232;-1.304;2023-04-24T14:18:41;7.05;;;2.15;;
73816;SDS011;62146;53.232;-1.304;2023-04-24T14:21:07;10.05;;;2.10;;
73816;SDS011;62146;53.232;-1.304;2023-04-24T14:23:34;7.20;;;1.97;;
73816;SDS011;62146;53.232;-1.304;2023-04-24T14:26:00;6.45;;;1.90;;
73816;SDS011;62146;53.232;-1.304;2023-04-24T14:28:27;9.23;;;2.00;;
73816;SDS011;62146;53.232;-1.304;2023-04-24T14:30:54;6.68;;;1.75;;
73816;SDS011;62146;53.232;-1.304;2023-04-24T14:33:22;8.13;;;2.08;;
73816;SDS011;62146;53.232;-1.304;2023-04-24T14:35:48;6.73;;;2.07;;
73816;SDS011;62146;53.232;-1.304;2023-04-24T14:38:15;8.07;;;2.45;;
73816;SDS011;62146;53.232;-1.304;2023-04-24T14:40:42;5.97;;;1.88;;
73816;SDS011;62146;53.232;-1.304;2023-04-24T14:43:11;7.35;;;2.40;;
73816;SDS011;62146;53.232;-1.304;2023-04-24T14:45:38;5.90;;;1.83;;
73816;SDS011;62146;53.232;-1.304;2023-04-24T14:48:06;6.67;;;1.73;;
73816;SDS011;62146;53.232;-1.304;2023-04-24T14:50:34;9.02;;;1.80;;
73816;SDS011;62146;53.232;-1.304;2023-04-24T14:53:01;7.13;;;1.98;;